Time;durP1;ratioP1;P1;durP2;ratioP2;P2;SDS_P1;SDS_P2;PMS_P1;PMS_P2;Temp;Humidity;BMP_temperature;BMP_pressure;BME280_temperature;BME280_humidity;BME280_pressure;Samples;Min_cycle;Max_cycle;Signal;HPM_P1;HPM_P2
2022/01/16 00:00:18;;;;;;;13.40;13.00;;;19.80;63.00;;;;;;5022658;28;20476;-49
2022/01/16 00:05:31;;;;;;;13.20;12.80;;;19.70;63.50;;;;;;5022908;28;20463;-51
2022/01/16 00:07:58;;;;;;;13.37;12.93;;;19.70;63.60;;;;;;5022638;28;20460;-51
2022/01/16 00:10:27;;;;;;;12.60;12.20;;;19.70;63.80;;;;;;5022733;28;20472;-50
2022/01/16 00:12:58;;;;;;;12.40;12.10;;;19.70;63.80;;;;;;5022379;28;20460;-53
2022/01/16 00:15:25;;;;;;;13.20;12.80;;;19.70;63.80;;;;;;5022914;28;20449;-54
2022/01/16 00:17:55;;;;;;;13.37;12.87;;;19.60;64.10;;;;;;5022891;28;20457;-52
2022/01/16 00:20:24;;;;;;;12.90;12.50;;;19.60;64.30;;;;;;5022567;28;20480;-50
2022/01/16 00:22:51;;;;;;;12.53;12.13;;;19.60;64.30;;;;;;5021987;28;20557;-50
2022/01/16 00:25:18;;;;;;;12.70;12.37;;;19.50;64.70;;;;;;5022712;28;20453;-53
2022/01/16 00:27:47;;;;;;;12.87;12.47;;;19.40;65.10;;;;;;5022646;28;20463;-49
2022/01/16 00:30:15;;;;;;;12.70;12.37;;;19.40;65.20;;;;;;5021605;28;20472;-49
2022/01/16 00:32:41;;;;;;;12.63;12.33;;;19.30;65.30;;;;;;5022287;28;20890;-52
2022/01/16 00:35:11;;;;;;;12.37;12.00;;;19.30;65.60;;;;;;5022308;28;20453;-50
2022/01/16 00:37:38;;;;;;;13.27;12.77;;;19.30;65.90;;;;;;5022013;28;20449;-49
2022/01/16 00:40:05;;;;;;;13.07;12.67;;;19.30;66.10;;;;;;5021951;28;20958;-50
2022/01/16 00:42:35;;;;;;;12.50;12.10;;;19.40;66.30;;;;;;5021750;28;20456;-52
2022/01/16 00:45:04;;;;;;;12.67;12.27;;;19.30;65.90;;;;;;5024524;28;20449;-56
2022/01/16 00:47:30;;;;;;;13.03;12.63;;;19.20;66.20;;;;;;5033567;28;20830;-52
2022/01/16 00:49:57;;;;;;;12.80;12.40;;;19.20;65.90;;;;;;5033128;28;20477;-51
2022/01/16 00:52:24;;;;;;;13.33;12.90;;;19.10;64.70;;;;;;5033410;28;20449;-54
2022/01/16 00:54:50;;;;;;;13.20;12.80;;;19.10;63.50;;;;;;5033334;28;20456;-51
2022/01/16 00:57:17;;;;;;;12.93;12.53;;;19.10;63.10;;;;;;5033180;28;20457;-52
2022/01/16 00:59:44;;;;;;;13.83;13.33;;;19.00;63.00;;;;;;5033410;28;20830;-51
2022/01/16 01:02:12;;;;;;;12.70;12.23;;;18.80;62.70;;;;;;5033075;28;20453;-48
2022/01/16 01:04:39;;;;;;;12.50;12.10;;;18.70;62.80;;;;;;5033382;28;20461;-48
2022/01/16 01:07:05;;;;;;;12.90;12.50;;;18.70;62.90;;;;;;5033160;28;21016;-51
2022/01/16 01:09:32;;;;;;;13.20;12.80;;;18.60;62.90;;;;;;5033088;28;20468;-51
2022/01/16 01:11:59;;;;;;;12.80;12.40;;;18.50;63.00;;;;;;5033021;28;20445;-50
2022/01/16 01:14:37;;;;;;;13.07;12.67;;;18.50;63.10;;;;;;5032857;28;20437;-51
2022/01/16 01:17:04;;;;;;;13.10;12.70;;;18.50;62.90;;;;;;5032884;28;20453;-50
2022/01/16 01:19:33;;;;;;;13.30;12.90;;;18.40;63.00;;;;;;5032784;28;20492;-51
2022/01/16 01:22:00;;;;;;;13.03;12.63;;;18.30;63.10;;;;;;5032785;28;20819;-50
2022/01/16 01:24:29;;;;;;;12.63;12.33;;;18.30;63.30;;;;;;5032803;28;20449;-54
2022/01/16 01:27:02;;;;;;;13.00;12.60;;;18.30;63.30;;;;;;5032923;28;20453;-56
2022/01/16 01:29:29;;;;;;;12.97;12.57;;;18.20;63.40;;;;;;5032796;28;20511;-48
2022/01/16 01:31:56;;;;;;;13.30;12.90;;;18.20;63.50;;;;;;5032334;28;20484;-54
2022/01/16 01:34:23;;;;;;;12.40;12.00;;;18.20;63.50;;;;;;5032672;28;20849;-52
2022/01/16 01:36:51;;;;;;;13.20;12.77;;;18.20;63.60;;;;;;5032598;28;20456;-52
2022/01/16 01:39:19;;;;;;;13.20;12.80;;;18.10;63.60;;;;;;5032517;28;20842;-57
2022/01/16 01:41:47;;;;;;;13.40;13.00;;;18.10;63.60;;;;;;5031516;28;20815;-55
2022/01/16 01:52:28;;;;;;;13.60;13.20;;;18.00;63.70;;;;;;5032301;28;20440;-55
2022/01/16 01:54:55;;;;;;;12.40;12.00;;;18.00;63.70;;;;;;5032465;28;20449;-54
2022/01/16 01:57:21;;;;;;;12.60;12.30;;;18.00;63.70;;;;;;5032363;28;20457;-55
2022/01/16 01:59:48;;;;;;;13.07;12.67;;;17.90;63.60;;;;;;5032070;28;20543;-53
2022/01/16 02:02:15;;;;;;;13.20;12.70;;;18.00;64.00;;;;;;5031942;28;20457;-53
2022/01/16 02:04:41;;;;;;;13.57;13.17;;;18.00;64.00;;;;;;5031779;28;20452;-50
2022/01/16 02:07:08;;;;;;;14.13;13.63;;;18.00;64.10;;;;;;5032080;28;20938;-51
2022/01/16 02:09:38;;;;;;;13.73;13.20;;;17.90;63.90;;;;;;5032021;28;20823;-56
2022/01/16 02:12:06;;;;;;;13.30;12.90;;;17.80;63.90;;;;;;5031945;28;20449;-53
2022/01/16 02:14:46;;;;;;;13.40;13.00;;;17.80;64.10;;;;;;5031922;28;20536;-57
2022/01/16 02:28:21;;;;;;;12.57;12.17;;;17.80;64.10;;;;;;5031918;28;20540;-49
2022/01/16 02:31:16;;;;;;;14.20;13.70;;;17.70;64.40;;;;;;5031816;28;20905;-52
2022/01/16 02:36:33;;;;;;;12.93;12.53;;;17.70;64.70;;;;;;5031802;28;20456;-55
2022/01/16 02:39:06;;;;;;;13.43;13.00;;;17.70;64.60;;;;;;5031357;28;20483;-53
2022/01/16 02:41:33;;;;;;;13.07;12.67;;;17.70;64.60;;;;;;5031437;28;20461;-52
2022/01/16 02:44:02;;;;;;;13.20;12.80;;;17.70;64.70;;;;;;5031720;28;20476;-52
2022/01/16 02:46:39;;;;;;;13.20;12.70;;;17.70;64.80;;;;;;5031222;28;20480;-52
2022/01/16 02:49:17;;;;;;;13.60;13.20;;;17.60;64.80;;;;;;5031630;28;20445;-56
2022/01/16 02:51:45;;;;;;;13.83;13.33;;;17.70;64.80;;;;;;5031427;28;20448;-56
2022/01/16 02:54:13;;;;;;;14.23;13.73;;;17.60;64.70;;;;;;5030758;28;20441;-53
2022/01/16 02:56:40;;;;;;;14.30;13.70;;;17.60;64.70;;;;;;5031359;28;20860;-57
2022/01/16 02:59:10;;;;;;;13.50;13.00;;;17.60;64.50;;;;;;5011727;28;20504;-57
2022/01/16 03:01:36;;;;;;;14.60;14.00;;;17.60;64.80;;;;;;5011701;28;20455;-55
2022/01/16 03:04:03;;;;;;;15.57;14.80;;;17.50;64.90;;;;;;5011724;28;20449;-55
2022/01/16 03:06:30;;;;;;;13.20;12.70;;;17.50;65.00;;;;;;5011780;28;20851;-55
2022/01/16 03:08:57;;;;;;;15.00;14.30;;;17.50;65.20;;;;;;5011598;28;20449;-55
2022/01/16 03:11:34;;;;;;;14.53;13.93;;;17.40;65.30;;;;;;5012779;28;20544;-54
2022/01/16 03:14:01;;;;;;;14.37;13.87;;;17.40;65.60;;;;;;5011657;28;20445;-52
2022/01/16 03:16:28;;;;;;;13.63;13.13;;;17.40;65.70;;;;;;5028260;28;20799;-53
2022/01/16 03:21:54;;;;;;;14.70;14.10;;;17.40;65.80;;;;;;5031437;28;20519;-57
2022/01/16 03:24:24;;;;;;;14.13;13.63;;;17.40;65.90;;;;;;5031309;28;20990;-57
2022/01/16 03:26:53;;;;;;;13.63;13.20;;;17.40;65.90;;;;;;5030924;28;20460;-56
2022/01/16 03:29:20;;;;;;;13.83;13.40;;;17.40;66.10;;;;;;5030789;28;20448;-57
2022/01/16 03:31:47;;;;;;;13.70;13.20;;;17.40;66.10;;;;;;5031040;28;20441;-54
2022/01/16 03:34:14;;;;;;;15.70;15.00;;;17.50;65.80;;;;;;5031057;28;20465;-53
2022/01/16 03:36:40;;;;;;;14.70;14.20;;;17.40;65.40;;;;;;5031178;28;20816;-54
2022/01/16 03:39:07;;;;;;;13.70;13.20;;;17.40;65.80;;;;;;5031103;28;20481;-57
2022/01/16 03:41:35;;;;;;;15.20;14.60;;;17.30;66.20;;;;;;5030709;28;20871;-56
2022/01/16 03:44:03;;;;;;;15.70;15.07;;;17.30;66.30;;;;;;5030906;28;20453;-57
2022/01/16 03:46:34;;;;;;;14.93;14.23;;;17.30;66.10;;;;;;5030945;28;20965;-53
2022/01/16 03:49:03;;;;;;;13.70;13.20;;;17.20;66.00;;;;;;5031046;28;20452;-55
2022/01/16 03:51:30;;;;;;;14.37;13.83;;;17.30;66.50;;;;;;5030609;28;20520;-56
2022/01/16 03:53:57;;;;;;;14.13;13.53;;;17.20;66.40;;;;;;5030874;28;20456;-53
2022/01/16 03:56:24;;;;;;;15.73;14.93;;;17.20;66.80;;;;;;5030764;28;20859;-55
2022/01/16 03:58:51;;;;;;;13.90;13.40;;;17.20;66.80;;;;;;5030771;28;20445;-54
2022/01/16 04:01:19;;;;;;;15.63;14.83;;;17.30;67.30;;;;;;5030573;28;21012;-55
2022/01/16 04:03:46;;;;;;;14.40;13.80;;;17.40;66.90;;;;;;5030711;28;20445;-51
2022/01/16 04:06:13;;;;;;;13.47;13.00;;;17.40;66.60;;;;;;5033711;28;20456;-53
2022/01/16 04:08:39;;;;;;;15.90;15.13;;;17.40;67.00;;;;;;5034512;28;20536;-53
2022/01/16 04:11:07;;;;;;;14.77;14.17;;;17.50;66.90;;;;;;5033883;28;20472;-57
2022/01/16 04:13:34;;;;;;;15.70;14.90;;;17.50;66.40;;;;;;5034102;28;20926;-57
2022/01/16 04:16:01;;;;;;;14.77;14.17;;;17.50;66.60;;;;;;5034464;28;20545;-57
2022/01/16 04:18:29;;;;;;;14.33;13.83;;;17.40;66.60;;;;;;5034310;28;20453;-57
2022/01/16 04:20:57;;;;;;;15.10;14.40;;;17.50;67.00;;;;;;5033961;28;20850;-53
2022/01/16 04:23:23;;;;;;;14.03;13.53;;;17.50;66.90;;;;;;5033592;28;20449;-53
2022/01/16 04:25:50;;;;;;;14.70;14.10;;;17.60;66.90;;;;;;5033808;28;20476;-57
2022/01/16 04:28:22;;;;;;;15.07;14.37;;;17.50;66.70;;;;;;5033939;28;20445;-52
2022/01/16 04:30:49;;;;;;;14.87;14.37;;;17.50;66.70;;;;;;5033787;28;20476;-49
2022/01/16 04:33:16;;;;;;;15.57;14.83;;;17.60;66.80;;;;;;5033837;28;20507;-52
2022/01/16 04:35:44;;;;;;;15.40;14.77;;;17.50;66.90;;;;;;5034109;28;20492;-53
2022/01/16 04:38:11;;;;;;;15.47;14.87;;;17.50;67.10;;;;;;5033339;28;20444;-54
2022/01/16 04:40:44;;;;;;;15.60;14.90;;;17.50;67.30;;;;;;5033322;28;20488;-53
2022/01/16 04:46:01;;;;;;;15.07;14.37;;;17.60;67.10;;;;;;5016034;28;20428;-55
2022/01/16 04:48:28;;;;;;;14.90;14.20;;;17.60;67.00;;;;;;5033372;28;20444;-53
2022/01/16 04:50:56;;;;;;;14.13;13.63;;;17.60;66.90;;;;;;5033453;28;20837;-56
2022/01/16 04:53:22;;;;;;;14.97;14.27;;;17.50;66.90;;;;;;5033364;28;20445;-52
2022/01/16 04:55:50;;;;;;;14.63;14.13;;;17.50;67.10;;;;;;5033435;28;20438;-54
2022/01/16 04:58:18;;;;;;;15.03;14.43;;;17.60;67.40;;;;;;5033602;28;20503;-57
2022/01/16 05:00:44;;;;;;;14.83;14.23;;;17.60;66.90;;;;;;5033339;28;20643;-58
2022/01/16 05:03:11;;;;;;;15.13;14.47;;;17.50;67.10;;;;;;5032853;28;20457;-58
2022/01/16 05:05:38;;;;;;;16.50;15.90;;;17.60;67.10;;;;;;5033301;28;20453;-54
2022/01/16 05:08:06;;;;;;;16.17;15.47;;;17.60;67.10;;;;;;5033172;28;20453;-57
2022/01/16 05:10:33;;;;;;;15.20;14.50;;;17.50;67.60;;;;;;5033171;28;20461;-58
2022/01/16 05:13:26;;;;;;;16.03;15.33;;;17.50;67.70;;;;;;5033011;28;20446;-52
2022/01/16 05:18:30;;;;;;;15.00;14.40;;;17.60;67.20;;;;;;5032519;28;20452;-51
2022/01/16 05:20:57;;;;;;;16.17;15.37;;;17.50;67.20;;;;;;5032805;28;20485;-54
2022/01/16 05:23:25;;;;;;;16.23;15.63;;;17.50;67.20;;;;;;5032763;28;20456;-57
2022/01/16 05:25:52;;;;;;;16.07;15.37;;;17.60;67.30;;;;;;5033073;28;20452;-57
2022/01/16 05:28:19;;;;;;;16.73;15.80;;;17.50;67.10;;;;;;5032960;28;20448;-53
2022/01/16 05:30:46;;;;;;;15.80;15.20;;;17.50;67.40;;;;;;5032771;28;20472;-52
2022/01/16 05:33:12;;;;;;;15.50;14.80;;;17.50;67.30;;;;;;5032194;28;20453;-55
2022/01/16 05:35:40;;;;;;;15.47;14.77;;;17.50;67.20;;;;;;5032644;28;20806;-53
2022/01/16 05:38:06;;;;;;;16.67;15.87;;;17.50;67.60;;;;;;5032739;28;20468;-57
2022/01/16 05:40:34;;;;;;;15.37;14.73;;;17.50;67.60;;;;;;5032317;28;20491;-50
2022/01/16 05:43:01;;;;;;;17.90;17.00;;;17.50;67.70;;;;;;5032424;28;20871;-56
2022/01/16 05:45:28;;;;;;;17.23;16.33;;;17.40;67.70;;;;;;5032424;28;20784;-56
2022/01/16 05:47:55;;;;;;;16.40;15.70;;;17.50;68.00;;;;;;5032381;28;20453;-58
2022/01/16 05:50:22;;;;;;;16.57;15.70;;;17.50;68.40;;;;;;5032387;28;20897;-54
2022/01/16 05:52:49;;;;;;;17.70;16.80;;;18.60;69.30;;;;;;5032146;28;20499;-55
2022/01/16 05:55:16;;;;;;;16.17;15.47;;;19.50;65.10;;;;;;5032303;28;20450;-51
2022/01/16 05:57:45;;;;;;;16.67;15.97;;;20.10;61.50;;;;;;5032220;28;20449;-54
2022/01/16 06:00:13;;;;;;;16.43;15.73;;;20.40;59.00;;;;;;5031738;28;20488;-53
2022/01/16 06:02:41;;;;;;;15.83;15.13;;;20.60;57.50;;;;;;5031881;28;20456;-54
2022/01/16 06:05:09;;;;;;;15.30;14.70;;;20.80;56.60;;;;;;5032250;28;20449;-53
2022/01/16 06:07:35;;;;;;;16.00;15.33;;;20.90;55.80;;;;;;5032166;28;20450;-58
2022/01/16 06:10:03;;;;;;;16.20;15.40;;;20.90;55.30;;;;;;5031969;28;20540;-51
2022/01/16 06:12:30;;;;;;;16.20;15.50;;;20.80;55.60;;;;;;5031796;28;20449;-52
2022/01/16 06:14:58;;;;;;;16.67;15.93;;;21.00;55.00;;;;;;5031825;28;20445;-50
2022/01/16 06:17:24;;;;;;;16.57;15.87;;;21.00;54.50;;;;;;5031900;28;20818;-52
2022/01/16 06:19:51;;;;;;;17.03;16.13;;;21.00;54.20;;;;;;5031406;28;20488;-58
2022/01/16 06:22:18;;;;;;;16.60;16.00;;;21.00;54.00;;;;;;5032226;28;20445;-56
2022/01/16 06:24:44;;;;;;;16.33;15.73;;;21.00;53.80;;;;;;5031983;28;20449;-52
2022/01/16 06:27:11;;;;;;;15.67;14.97;;;20.90;53.70;;;;;;5031435;28;20449;-53
2022/01/16 06:29:38;;;;;;;17.20;16.40;;;21.00;53.80;;;;;;5031670;28;20473;-56
2022/01/16 06:32:07;;;;;;;16.73;16.03;;;21.00;53.80;;;;;;5031728;28;20445;-50
2022/01/16 06:34:33;;;;;;;16.73;16.03;;;21.10;53.90;;;;;;5031624;28;20456;-58
2022/01/16 06:37:00;;;;;;;16.57;15.87;;;21.10;53.90;;;;;;5031800;28;20469;-58
2022/01/16 06:39:29;;;;;;;16.70;16.00;;;20.90;53.80;;;;;;5031692;28;20456;-52
2022/01/16 06:41:56;;;;;;;17.50;16.60;;;21.00;54.10;;;;;;5031391;28;20912;-51
2022/01/16 06:44:22;;;;;;;17.10;16.30;;;21.00;54.70;;;;;;5031382;28;20507;-52
2022/01/16 06:46:49;;;;;;;16.43;15.73;;;20.90;54.00;;;;;;5031751;28;20445;-52
2022/01/16 06:49:17;;;;;;;16.00;15.40;;;20.90;54.10;;;;;;5032130;28;20819;-57
2022/01/16 06:51:45;;;;;;;17.60;16.80;;;20.80;54.00;;;;;;5032094;28;20441;-57
2022/01/16 06:54:12;;;;;;;17.10;16.27;;;20.80;54.20;;;;;;5031619;28;20488;-55
2022/01/16 06:56:39;;;;;;;16.80;16.00;;;20.80;54.20;;;;;;5031617;28;20449;-57
2022/01/16 06:59:05;;;;;;;16.70;15.90;;;20.80;54.20;;;;;;5031090;28;20452;-51
2022/01/16 07:01:32;;;;;;;19.10;18.10;;;20.80;54.20;;;;;;5031342;28;20492;-54
2022/01/16 07:03:59;;;;;;;17.47;16.67;;;20.80;54.30;;;;;;5031452;28;20453;-53
2022/01/16 07:06:27;;;;;;;17.47;16.57;;;20.70;54.00;;;;;;5032804;28;20448;-51
2022/01/16 07:08:53;;;;;;;16.97;16.03;;;20.70;54.30;;;;;;5031838;28;20445;-50
2022/01/16 07:11:20;;;;;;;16.70;15.97;;;20.70;54.40;;;;;;5031360;28;20461;-53
2022/01/16 07:13:47;;;;;;;17.77;16.93;;;20.60;54.60;;;;;;5031441;28;20818;-58
2022/01/16 07:16:14;;;;;;;17.10;16.30;;;20.60;54.90;;;;;;5031787;28;20453;-56
2022/01/16 07:18:40;;;;;;;18.03;17.23;;;20.60;54.90;;;;;;5034482;28;20445;-53
2022/01/16 07:21:13;;;;;;;18.60;17.70;;;20.50;55.00;;;;;;5034074;28;20481;-56
2022/01/16 07:23:41;;;;;;;12.40;11.90;;;20.60;55.20;;;;;;5032119;28;20441;-53
2022/01/16 07:26:07;;;;;;;12.47;11.97;;;20.50;55.30;;;;;;5032059;28;20445;-56
2022/01/16 07:28:35;;;;;;;13.23;12.63;;;20.40;55.40;;;;;;5031910;28;20448;-53
2022/01/16 07:31:03;;;;;;;13.37;12.77;;;20.30;55.50;;;;;;5031169;28;20563;-55
2022/01/16 07:33:29;;;;;;;13.50;12.90;;;20.30;55.60;;;;;;5031084;28;20468;-50
2022/01/16 07:35:56;;;;;;;13.43;12.83;;;20.20;55.70;;;;;;5031121;28;20810;-53
2022/01/16 07:38:23;;;;;;;12.90;12.30;;;20.10;56.00;;;;;;5032683;28;20453;-53
2022/01/16 07:40:51;;;;;;;13.80;13.20;;;20.10;56.40;;;;;;5034715;28;20489;-52
2022/01/16 07:43:17;;;;;;;13.17;12.57;;;20.00;56.50;;;;;;5036738;28;20456;-56
2022/01/16 07:45:44;;;;;;;13.67;12.97;;;20.00;56.70;;;;;;5035980;28;20449;-56
2022/01/16 07:48:11;;;;;;;13.47;12.97;;;19.90;57.00;;;;;;5035046;28;20461;-52
2022/01/16 07:50:39;;;;;;;17.33;16.33;;;19.80;56.90;;;;;;5035512;28;20473;-45
2022/01/16 07:53:06;;;;;;;14.53;13.73;;;19.80;57.10;;;;;;5034451;28;20451;-50
2022/01/16 07:55:33;;;;;;;13.20;12.63;;;19.80;57.50;;;;;;5034283;28;20468;-48
2022/01/16 07:58:02;;;;;;;13.63;13.03;;;19.80;57.60;;;;;;5034570;28;20869;-47
2022/01/16 08:00:30;;;;;;;14.03;13.40;;;19.80;57.60;;;;;;5034456;28;20488;-46
2022/01/16 08:02:57;;;;;;;13.63;12.93;;;19.70;57.70;;;;;;5034215;28;20445;-45
2022/01/16 08:05:25;;;;;;;16.07;15.23;;;19.70;57.80;;;;;;5034475;28;20466;-45
2022/01/16 08:07:51;;;;;;;13.47;12.87;;;19.60;57.50;;;;;;5034537;28;20445;-45
2022/01/16 08:10:18;;;;;;;13.37;12.77;;;19.60;57.90;;;;;;5033928;28;20476;-44
2022/01/16 08:12:45;;;;;;;14.47;13.77;;;19.60;58.00;;;;;;5034205;28;20806;-43
2022/01/16 08:15:13;;;;;;;14.93;14.23;;;19.60;57.80;;;;;;5034106;28;20445;-49
2022/01/16 08:17:40;;;;;;;15.23;14.33;;;19.50;57.70;;;;;;5034189;28;20441;-45
2022/01/16 08:20:08;;;;;;;16.00;14.90;;;19.50;58.00;;;;;;5034023;28;20475;-45
2022/01/16 08:22:36;;;;;;;14.10;13.40;;;19.50;58.00;;;;;;5033934;28;20473;-46
2022/01/16 08:25:03;;;;;;;14.27;13.50;;;19.50;58.20;;;;;;5033816;28;20446;-50
2022/01/16 08:27:30;;;;;;;13.23;12.53;;;19.40;58.20;;;;;;5034078;28;20938;-51
2022/01/16 08:29:57;;;;;;;13.77;13.17;;;19.40;58.50;;;;;;5034090;28;20473;-49
2022/01/16 08:32:25;;;;;;;13.17;12.47;;;19.30;58.50;;;;;;5033764;28;20456;-44
2022/01/16 08:34:51;;;;;;;15.07;14.27;;;19.30;58.70;;;;;;5033769;28;20449;-44
2022/01/16 08:37:19;;;;;;;14.77;14.03;;;19.30;58.70;;;;;;5034004;28;20449;-48
2022/01/16 08:39:45;;;;;;;14.47;13.77;;;19.20;59.20;;;;;;5033406;28;20531;-49
2022/01/16 08:42:12;;;;;;;15.30;14.30;;;19.30;59.70;;;;;;5033344;28;20484;-53
2022/01/16 08:44:39;;;;;;;13.03;12.43;;;20.70;59.40;;;;;;5033682;28;20510;-46
2022/01/16 08:47:06;;;;;;;13.97;13.27;;;21.70;56.50;;;;;;5033829;28;20480;-45
2022/01/16 08:49:34;;;;;;;12.50;11.90;;;22.10;54.50;;;;;;5033434;28;21117;-47
2022/01/16 08:52:01;;;;;;;13.50;12.90;;;22.30;53.50;;;;;;5032194;28;20445;-47
2022/01/16 08:54:28;;;;;;;14.07;13.37;;;23.00;52.70;;;;;;5033059;28;20814;-45
2022/01/16 08:56:55;;;;;;;13.17;12.57;;;23.20;51.50;;;;;;5033406;28;20455;-46
2022/01/16 08:59:22;;;;;;;12.60;11.90;;;23.50;50.90;;;;;;5033442;28;20449;-46
2022/01/16 09:01:49;;;;;;;11.50;11.00;;;23.60;49.90;;;;;;5033228;28;20496;-49
2022/01/16 09:04:16;;;;;;;15.10;14.40;;;23.60;49.50;;;;;;5033317;28;20818;-47
2022/01/16 09:06:45;;;;;;;13.93;13.23;;;23.60;49.30;;;;;;5033355;28;20802;-48
2022/01/16 09:09:12;;;;;;;14.90;14.10;;;23.60;49.30;;;;;;5032839;28;20449;-46
2022/01/16 09:11:40;;;;;;;15.77;14.43;;;23.60;48.90;;;;;;5033186;28;20473;-49
2022/01/16 09:14:07;;;;;;;12.87;12.30;;;23.70;48.60;;;;;;5033169;28;20449;-46
2022/01/16 09:16:34;;;;;;;12.27;11.77;;;23.70;48.60;;;;;;5032924;28;20461;-47
2022/01/16 09:19:01;;;;;;;13.53;12.90;;;23.80;48.50;;;;;;5033196;28;20445;-46
2022/01/16 09:21:28;;;;;;;12.70;12.20;;;23.90;48.30;;;;;;5032475;28;20854;-47
2022/01/16 09:23:56;;;;;;;14.50;13.77;;;24.20;48.00;;;;;;5032882;28;20850;-46
2022/01/16 09:26:25;;;;;;;14.00;13.37;;;24.50;47.60;;;;;;5032820;28;20873;-47
2022/01/16 09:28:52;;;;;;;15.87;15.13;;;24.60;47.20;;;;;;5032931;28;20441;-46
2022/01/16 09:31:19;;;;;;;14.17;13.67;;;24.60;47.00;;;;;;5032778;28;20472;-46
2022/01/16 09:33:46;;;;;;;15.80;15.10;;;24.60;46.90;;;;;;5032641;28;20529;-50
2022/01/16 09:36:13;;;;;;;14.00;13.40;;;24.60;46.80;;;;;;5032637;28;20476;-47
2022/01/16 09:38:40;;;;;;;14.80;14.10;;;24.40;46.60;;;;;;5032402;28;20456;-46
2022/01/16 09:41:08;;;;;;;13.90;13.40;;;24.30;46.80;;;;;;5032328;28;20481;-48
2022/01/16 09:43:36;;;;;;;15.10;14.50;;;24.60;47.20;;;;;;5032378;28;20476;-49
2022/01/16 09:46:04;;;;;;;15.47;14.77;;;25.10;46.60;;;;;;5032513;28;20806;-49
2022/01/16 09:48:31;;;;;;;14.93;14.23;;;25.20;45.90;;;;;;5032429;28;20444;-53
2022/01/16 09:50:57;;;;;;;13.60;13.00;;;25.20;45.60;;;;;;5032461;28;20538;-47
2022/01/16 09:53:25;;;;;;;15.37;14.67;;;25.20;45.50;;;;;;5031936;28;20889;-53
2022/01/16 09:55:52;;;;;;;17.00;16.27;;;25.20;45.30;;;;;;5032321;28;20449;-47
2022/01/16 09:58:21;;;;;;;14.43;13.77;;;25.20;45.20;;;;;;5032495;28;20824;-52
2022/01/16 10:00:48;;;;;;;14.07;13.47;;;25.20;45.10;;;;;;5031618;28;20527;-45
2022/01/16 10:03:34;;;;;;;14.33;13.50;;;25.30;45.30;;;;;;5030988;28;20441;-47
2022/01/16 10:06:09;;;;;;;13.40;12.90;;;25.80;44.90;;;;;;5032208;28;20532;-52
2022/01/16 10:08:37;;;;;;;12.50;12.00;;;25.80;44.10;;;;;;5032176;28;20514;-44
2022/01/16 10:11:20;;;;;;;17.63;16.53;;;25.70;44.10;;;;;;5032103;28;20493;-47
2022/01/16 10:13:57;;;;;;;20.47;18.77;;;25.70;44.60;;;;;;5031643;28;20453;-49
2022/01/16 10:16:26;;;;;;;17.50;16.27;;;25.90;44.30;;;;;;5031574;28;20457;-44
2022/01/16 10:18:53;;;;;;;18.70;17.30;;;25.90;44.00;;;;;;5031993;28;20449;-48
2022/01/16 10:21:36;;;;;;;16.90;15.80;;;25.90;44.00;;;;;;5031659;28;20488;-45
2022/01/16 10:24:22;;;;;;;15.63;14.53;;;25.80;44.00;;;;;;5020692;28;20476;-48
2022/01/16 10:27:11;;;;;;;15.53;14.67;;;25.80;43.80;;;;;;5031963;28;20441;-55
2022/01/16 10:29:40;;;;;;;16.00;15.10;;;25.70;43.50;;;;;;5031639;28;20465;-48
2022/01/16 10:32:12;;;;;;;15.87;14.97;;;25.50;43.70;;;;;;5031631;28;20440;-52
2022/01/16 10:34:40;;;;;;;14.67;13.67;;;25.80;43.70;;;;;;5031915;28;20456;-46
2022/01/16 10:37:19;;;;;;;17.07;16.07;;;26.10;43.40;;;;;;5030759;28;20859;-49
2022/01/16 10:39:53;;;;;;;16.33;15.32;;;26.10;43.00;;;;;;5031366;28;20433;-47
2022/01/16 10:42:20;;;;;;;16.23;15.33;;;26.00;42.90;;;;;;5031345;28;20240;-48
2022/01/16 10:44:55;;;;;;;16.57;15.47;;;25.90;43.00;;;;;;5031357;28;20449;-46
2022/01/16 10:47:27;;;;;;;15.73;14.83;;;26.10;43.00;;;;;;5031498;28;20980;-47
2022/01/16 10:50:20;;;;;;;15.47;14.57;;;26.40;42.80;;;;;;5031340;28;20814;-47
2022/01/16 10:52:59;;;;;;;16.57;15.67;;;26.50;42.30;;;;;;5031408;28;20810;-44
2022/01/16 10:55:36;;;;;;;16.10;15.10;;;26.20;42.00;;;;;;5031604;28;20481;-44
2022/01/16 10:58:06;;;;;;;16.33;15.43;;;26.00;42.30;;;;;;5031261;28;20449;-48
2022/01/16 11:00:35;;;;;;;16.20;15.10;;;26.00;43.10;;;;;;5031319;28;20468;-50
2022/01/16 11:03:04;;;;;;;17.57;16.27;;;25.90;44.10;;;;;;5031069;28;20892;-46
2022/01/16 11:05:34;;;;;;;16.90;15.50;;;25.80;45.60;;;;;;5031364;28;20445;-47
2022/01/16 11:08:03;;;;;;;19.07;17.43;;;25.90;46.50;;;;;;5031407;28;20851;-46
2022/01/16 11:10:31;;;;;;;18.63;17.10;;;26.10;46.70;;;;;;5031316;28;20477;-45
2022/01/16 11:13:00;;;;;;;21.50;19.33;;;26.40;47.50;;;;;;5031217;28;20453;-47
2022/01/16 11:15:28;;;;;;;19.77;17.73;;;26.30;49.80;;;;;;5034857;28;20499;-48
2022/01/16 11:17:57;;;;;;;20.37;18.57;;;26.30;50.50;;;;;;5035431;28;20445;-50
2022/01/16 11:20:29;;;;;;;18.77;16.80;;;26.30;49.80;;;;;;5035224;28;20527;-48
2022/01/16 11:23:14;;;;;;;17.43;15.80;;;26.30;49.70;;;;;;5034900;28;20567;-45
2022/01/16 11:25:42;;;;;;;17.60;16.30;;;26.10;49.60;;;;;;5035201;28;20449;-45
2022/01/16 11:28:12;;;;;;;17.80;16.50;;;26.10;50.00;;;;;;5035056;28;20445;-45
2022/01/16 11:30:41;;;;;;;18.97;17.50;;;26.10;50.00;;;;;;5035183;28;20469;-44
2022/01/16 11:33:10;;;;;;;17.00;15.70;;;26.10;49.80;;;;;;5034350;28;20448;-44
2022/01/16 11:35:45;;;;;;;19.53;17.90;;;26.30;49.70;;;;;;5035115;28;20449;-52
2022/01/16 11:38:13;;;;;;;19.23;17.83;;;26.60;49.20;;;;;;5034919;28;20460;-45
2022/01/16 11:40:48;;;;;;;17.80;16.03;;;26.80;48.20;;;;;;5034885;28;20978;-50
2022/01/16 11:43:24;;;;;;;18.00;16.43;;;26.70;47.60;;;;;;5034464;28;20506;-46
2022/01/16 11:45:54;;;;;;;18.77;17.00;;;26.70;47.60;;;;;;5034790;28;20463;-47
2022/01/16 11:48:46;;;;;;;18.47;16.87;;;26.60;47.00;;;;;;5034248;28;20528;-49
2022/01/16 11:52:02;;;;;;;17.50;16.10;;;26.40;46.70;;;;;;5034247;28;20481;-44
2022/01/16 11:54:37;;;;;;;17.97;16.53;;;26.30;46.80;;;;;;5034680;28;20453;-45
2022/01/16 11:57:20;;;;;;;16.77;15.53;;;26.40;46.60;;;;;;5034804;28;20498;-48
2022/01/16 11:59:49;;;;;;;17.57;16.17;;;26.30;46.30;;;;;;5030611;28;20481;-45
2022/01/16 12:02:25;;;;;;;19.03;17.57;;;26.10;46.10;;;;;;5034172;28;20481;-46
2022/01/16 12:05:01;;;;;;;16.53;14.80;;;26.00;45.50;;;;;;5034344;28;20444;-44
2022/01/16 12:07:58;;;;;;;17.27;15.63;;;26.00;45.60;;;;;;5034446;28;20456;-50
2022/01/16 12:10:46;;;;;;;14.90;14.00;;;25.90;45.60;;;;;;5034281;28;20966;-45
2022/01/16 12:13:57;;;;;;;15.90;14.63;;;25.70;45.40;;;;;;5034060;28;20453;-45
2022/01/16 12:16:46;;;;;;;18.23;17.07;;;25.70;45.30;;;;;;5034294;28;20480;-45
2022/01/16 12:19:32;;;;;;;15.97;14.97;;;25.60;45.40;;;;;;5033931;28;20453;-49
2022/01/16 12:22:01;;;;;;;16.83;15.93;;;25.40;45.20;;;;;;5033832;28;20485;-48
2022/01/16 12:24:39;;;;;;;16.60;15.60;;;25.30;45.30;;;;;;5034140;28;20448;-47
2022/01/16 12:27:24;;;;;;;17.03;15.93;;;25.10;45.50;;;;;;5033226;28;20452;-46
2022/01/16 12:30:24;;;;;;;15.17;14.17;;;24.90;45.60;;;;;;5033841;28;20496;-48
2022/01/16 12:32:59;;;;;;;16.17;15.23;;;24.80;45.50;;;;;;5029942;28;20460;-51
2022/01/16 12:36:08;;;;;;;14.23;13.33;;;24.70;45.70;;;;;;5033838;28;20449;-46
2022/01/16 12:38:40;;;;;;;15.13;14.33;;;24.60;45.90;;;;;;5033959;28;20449;-50
2022/01/16 12:41:09;;;;;;;14.67;13.63;;;24.50;45.70;;;;;;5033749;28;20988;-48
2022/01/16 12:43:44;;;;;;;15.13;14.33;;;24.40;45.60;;;;;;5033400;28;20529;-46
2022/01/16 12:46:12;;;;;;;16.77;15.73;;;24.40;45.60;;;;;;5033791;28;21003;-46
2022/01/16 12:48:41;;;;;;;13.50;12.90;;;24.40;45.50;;;;;;5033762;28;20457;-52
2022/01/16 12:51:09;;;;;;;14.37;13.67;;;24.40;45.50;;;;;;5033560;28;20496;-45
2022/01/16 12:53:41;;;;;;;15.80;14.90;;;24.30;45.50;;;;;;5033452;28;20444;-47
2022/01/16 12:56:29;;;;;;;16.17;15.27;;;24.30;45.20;;;;;;5033556;28;20568;-49
2022/01/16 12:58:59;;;;;;;17.37;16.47;;;24.20;45.10;;;;;;5033567;28;20943;-45
2022/01/16 13:01:27;;;;;;;15.07;14.27;;;24.10;45.20;;;;;;5033325;28;20487;-50
2022/01/16 13:03:54;;;;;;;14.90;14.10;;;24.00;45.20;;;;;;5033143;28;20481;-50
2022/01/16 13:06:24;;;;;;;14.70;13.90;;;23.90;45.30;;;;;;5033254;28;20449;-45
2022/01/16 13:09:05;;;;;;;14.50;13.70;;;23.80;45.20;;;;;;5033185;28;20537;-44
2022/01/16 13:11:35;;;;;;;15.00;14.13;;;23.70;45.40;;;;;;5033000;28;20473;-47
2022/01/16 13:14:03;;;;;;;13.90;13.13;;;23.50;45.30;;;;;;5033217;28;21085;-46